Portada
METAR-TAF:

METAR-TAF

Aeropuertos :

Aeropuerto de Palma de Mallorca

Palma de Mallorca, España

latitud: 39-33N, longitud: 002-44E, altitud: 4 m

Observación

El informe se hizo hace 17 minutos, a las 05:00 UTC
Viento 11 kt del oeste, variando entre oeste-suroeste y noroeste
Temperatura 13°C
Humedad 62%
Presión 1021 hPa
Visibilidad 10 km o más
Escasas nubes a una altura de 2400 ft

METAR: LEPA 150500Z 28011KT 240V320 9999 FEW024 13/06 Q1021 NOSIG

Hora: 06:17 (05:17 UTC)

Pronóstico

El informe se hizo hace 6 horas y 17 minutos, a las 23:00 UTC
Pronóstico válido del 15 a las 00 UTC al 15 a las 24 UTC
Viento 6 kt del oeste
Visibilidad 10 km o más
Escasas nubes a una altura de 2000 ft
Nubes dispersas a una altura de 4500 ft

TAF: LEPA 142300Z 1500/1524 26006KT 9999 FEW020 SCT045 TX17/1512Z TN07/1506Z

Observaciones y pronósticos meteorológicos de más de 4000 aeropuertos (mensajes METAR y TAF).

Los puntos amarillos y rojos representan las estaciones disponibles.

Ponga el ratón en el punto deseado para ver el nombre de la estación.

Haga clic para ver las observaciones y los pronósticos meteorológicos.

Para cambiar el mapa : haga clic en los botones verdes con una cruz de color negro para hacer un zoom, en el botón verde con un guión para alejar o en las flechas verdes para mapas adyacentes.


METAR-TAF: